Perry, Louisiana
Current Conditions -  °F | °C
As of 1:50 AM on Friday 31 Oct 2014 (Local Time) from KIYA Reporting Station
Clear Clear  
Wind Chill: 49°   Ceiling: Unl
Heat Index: 49°   Visibility: 10mi
Dew Point: 46°   Wind: 0mph
Humidity: 90%   Direction: NA
Pressure: 30.07"   Gusts: NA
Location:  29.95°N, 92.16°W
Report Text: KIYA 310650Z AUTO 00000KT 10SM CLR 10/08 A3007 RMK AO2 T00950080
Loading
Personal Weather Stations






























Interactive Weather Map New forecast layout! Learn more

10-Day Weather Forecast

Advertisements
Track Severe Weather on mobile